createdAt,value
2022-12-18T00:01:14.512Z,101059.47
2022-12-18T00:03:41.367Z,101055.22
2022-12-18T00:06:09.291Z,101059.59
2022-12-18T00:08:36.167Z,101057.97
2022-12-18T00:11:07.264Z,101052.84
2022-12-18T00:13:33.855Z,101052.94
2022-12-18T00:16:05.427Z,101057.25
2022-12-18T00:18:32.556Z,101055.63
2022-12-18T00:21:04.168Z,101048.75
2022-12-18T00:23:31.833Z,101047.06
2022-12-18T00:26:02.766Z,101047.13
2022-12-18T00:28:29.143Z,101046.28
2022-12-18T00:31:25.557Z,101048.00
2022-12-18T00:33:54.199Z,101042.06
2022-12-18T00:36:24.339Z,101040.41
2022-12-18T00:38:50.971Z,101040.41
2022-12-18T00:41:38.520Z,101042.22
2022-12-18T00:44:06.728Z,101039.63
2022-12-18T00:46:33.345Z,101029.38
2022-12-18T00:49:00.050Z,101034.59
2022-12-18T00:51:26.470Z,101032.03
2022-12-18T00:53:53.573Z,101032.88
2022-12-18T00:56:19.865Z,101038.91
2022-12-18T00:58:46.163Z,101043.22
2022-12-18T01:01:12.529Z,101051.00
2022-12-18T01:03:39.241Z,101050.16
2022-12-18T01:06:08.715Z,101058.81
2022-12-18T01:08:35.775Z,101046.84
2022-12-18T01:11:08.163Z,101041.69
2022-12-18T01:13:34.495Z,101037.47
2022-12-18T01:16:00.950Z,101034.94
2022-12-18T01:18:27.288Z,101028.09
2022-12-18T01:23:35.127Z,101032.44
2022-12-18T01:26:14.763Z,101041.03
2022-12-18T01:28:41.925Z,101042.81
2022-12-18T01:31:11.572Z,101044.53
2022-12-18T01:33:38.420Z,101042.00
2022-12-18T01:36:05.529Z,101033.41
2022-12-18T01:38:32.162Z,101027.41
2022-12-18T01:40:59.761Z,101038.59
2022-12-18T01:43:42.726Z,101036.03
2022-12-18T01:46:09.199Z,101031.78
2022-12-18T01:48:35.981Z,101032.69
2022-12-18T01:51:02.833Z,101046.47
2022-12-18T01:53:29.641Z,101052.47
2022-12-18T01:55:58.598Z,101063.63
2022-12-18T01:58:54.772Z,101063.63
2022-12-18T02:01:24.174Z,101072.25
2022-12-18T02:03:51.084Z,101068.78
2022-12-18T02:06:34.380Z,101066.22
2022-12-18T02:09:16.092Z,101064.53
2022-12-18T02:11:54.805Z,101057.69
2022-12-18T02:14:44.789Z,101056.00
2022-12-18T02:17:21.185Z,101054.28
2022-12-18T02:20:06.151Z,101055.22
2022-12-18T02:22:44.349Z,101038.03
2022-12-18T02:25:48.058Z,101046.66
2022-12-18T02:28:17.948Z,101045.84
2022-12-18T02:30:50.156Z,101048.44
2022-12-18T02:33:20.135Z,101048.47
2022-12-18T02:35:48.120Z,101053.66
2022-12-18T02:38:16.712Z,101057.13
2022-12-18T02:40:44.070Z,101044.25
2022-12-18T02:43:13.915Z,101041.75
2022-12-18T02:45:56.051Z,101042.59
2022-12-18T02:48:30.165Z,101042.69
2022-12-18T02:51:09.295Z,101033.22
2022-12-18T02:53:46.627Z,101044.47
2022-12-18T02:56:19.740Z,101041.94
2022-12-18T02:59:05.539Z,101039.34
2022-12-18T03:01:42.185Z,101042.88
2022-12-18T03:04:39.548Z,101042.03
2022-12-18T03:07:16.668Z,101029.19
2022-12-18T03:09:48.081Z,101029.22
2022-12-18T03:12:30.261Z,101039.50
2022-12-18T03:15:17.853Z,101037.78
2022-12-18T03:17:51.188Z,101036.06
2022-12-18T03:20:21.448Z,101036.06
2022-12-18T03:22:52.138Z,101030.94
2022-12-18T03:25:20.421Z,101039.53
2022-12-18T03:27:52.933Z,101035.25
2022-12-18T03:30:19.749Z,101040.47
2022-12-18T03:32:49.985Z,101035.34
2022-12-18T03:35:22.596Z,101037.06
2022-12-18T03:37:49.551Z,101043.97
2022-12-18T03:40:16.230Z,101047.44
2022-12-18T03:42:59.955Z,101046.56
2022-12-18T03:45:40.659Z,101038.00
2022-12-18T03:48:17.199Z,101029.41
2022-12-18T03:50:53.787Z,101032.84
2022-12-18T03:53:26.303Z,101033.75
2022-12-18T03:55:53.667Z,101032.88
2022-12-18T03:58:26.603Z,101031.09
2022-12-18T04:00:57.071Z,101025.09
2022-12-18T04:03:26.715Z,101029.41
2022-12-18T04:05:56.398Z,101030.28
2022-12-18T04:08:24.853Z,101034.56
2022-12-18T04:10:51.427Z,101035.41
2022-12-18T04:13:44.407Z,101025.88
2022-12-18T04:16:11.049Z,101025.94
2022-12-18T04:18:37.848Z,101025.94
2022-12-18T04:21:04.760Z,101022.47
2022-12-18T04:23:31.281Z,101028.53
2022-12-18T04:25:57.864Z,101034.56
2022-12-18T04:28:24.388Z,101034.59
2022-12-18T04:30:51.118Z,101030.31
2022-12-18T04:33:17.738Z,101032.03
2022-12-18T04:35:44.465Z,101022.59
2022-12-18T04:38:11.309Z,101025.16
2022-12-18T04:40:38.795Z,101021.72
2022-12-18T04:43:05.903Z,101021.72
2022-12-18T04:45:33.226Z,101025.19
2022-12-18T04:48:00.654Z,101020.03
2022-12-18T04:50:27.280Z,101012.28
2022-12-18T04:52:54.191Z,101011.44
2022-12-18T04:55:20.810Z,101015.72
2022-12-18T04:57:47.410Z,101011.41
2022-12-18T05:00:14.729Z,101009.69
2022-12-18T05:02:41.432Z,101015.69
2022-12-18T05:05:08.630Z,101026.00
2022-12-18T05:07:35.115Z,101024.28
2022-12-18T05:10:01.713Z,101024.28
2022-12-18T05:12:28.260Z,101025.16
2022-12-18T05:14:54.769Z,101024.28
2022-12-18T05:17:21.273Z,101014.81
2022-12-18T05:19:47.855Z,101014.81
2022-12-18T05:22:14.369Z,101014.81
2022-12-18T05:24:40.938Z,101012.22
2022-12-18T05:27:07.531Z,101012.22
2022-12-18T05:29:34.251Z,101012.22
2022-12-18T05:32:00.873Z,101013.09
2022-12-18T05:34:27.318Z,101009.72
2022-12-18T05:36:53.831Z,101003.66
2022-12-18T05:39:20.327Z,101006.28
2022-12-18T05:41:46.788Z,101008.00
2022-12-18T05:44:13.467Z,101012.31
2022-12-18T05:46:40.037Z,101016.63
2022-12-18T05:49:07.340Z,101024.38
2022-12-18T05:51:33.889Z,101034.69
2022-12-18T05:54:00.474Z,101029.53
2022-12-18T05:56:27.021Z,101031.25
2022-12-18T05:58:54.959Z,101046.78
2022-12-18T06:01:26.307Z,101049.38
2022-12-18T06:03:53.215Z,101051.13
2022-12-18T06:06:23.470Z,101047.66
2022-12-18T06:08:51.606Z,101045.97
2022-12-18T06:11:21.426Z,101046.78
2022-12-18T06:13:54.793Z,101044.22
2022-12-18T06:16:24.696Z,101049.44
2022-12-18T06:18:51.226Z,101047.69
2022-12-18T06:21:17.721Z,101048.56
2022-12-18T06:23:44.568Z,101058.88
2022-12-18T06:26:13.103Z,101064.88
2022-12-18T06:28:39.990Z,101066.59
2022-12-18T06:31:07.536Z,101065.72
2022-12-18T06:33:35.038Z,101070.03
2022-12-18T06:36:07.210Z,101070.03
2022-12-18T06:38:35.470Z,101067.47
2022-12-18T06:41:06.691Z,101064.00
2022-12-18T06:43:33.363Z,101068.28
2022-12-18T06:46:01.543Z,101082.91
2022-12-18T06:48:28.505Z,101075.16
2022-12-18T06:50:55.185Z,101087.19
2022-12-18T06:53:21.699Z,101075.16
2022-12-18T06:55:48.224Z,101076.88
2022-12-18T06:58:14.804Z,101074.28
2022-12-18T07:00:41.625Z,101069.13
2022-12-18T07:03:08.493Z,101074.28
2022-12-18T07:05:35.397Z,101070.00
2022-12-18T07:08:01.905Z,101064.84
2022-12-18T07:10:28.377Z,101057.94
2022-12-18T07:12:54.853Z,101051.09
2022-12-18T07:15:21.333Z,101057.09
2022-12-18T07:17:47.978Z,101058.81
2022-12-18T07:20:14.394Z,101066.56
2022-12-18T07:22:40.715Z,101059.69
2022-12-18T07:25:07.874Z,101059.72
2022-12-18T07:27:34.201Z,101056.25
2022-12-18T07:30:00.539Z,101058.84
2022-12-18T07:32:26.831Z,101063.19
2022-12-18T07:34:53.126Z,101058.03
2022-12-18T07:37:19.443Z,101058.91
2022-12-18T07:39:45.749Z,101052.00
2022-12-18T07:42:32.885Z,101055.47
2022-12-18T07:45:01.199Z,101053.75
2022-12-18T07:47:29.140Z,101055.47
2022-12-18T07:49:56.347Z,101048.56
2022-12-18T07:52:25.912Z,101036.56
2022-12-18T07:54:52.752Z,101036.56
2022-12-18T07:57:48.392Z,101035.72
2022-12-18T08:00:06.043Z,101028.88
2022-12-18T08:02:32.881Z,101022.00
2022-12-18T08:04:59.440Z,101018.56
2022-12-18T08:07:25.781Z,101016.91
2022-12-18T08:09:52.227Z,101010.88
2022-12-18T08:12:18.512Z,101022.97
2022-12-18T08:14:44.828Z,101026.44
2022-12-18T08:17:11.159Z,101024.75
2022-12-18T08:19:37.555Z,101027.41
2022-12-18T08:22:03.893Z,101023.13
2022-12-18T08:24:30.261Z,101036.94
2022-12-18T08:27:27.934Z,101032.69
2022-12-18T08:29:44.574Z,101039.63
2022-12-18T08:32:10.944Z,101040.59
2022-12-18T08:34:37.419Z,101043.22
2022-12-18T08:37:03.791Z,101047.63
2022-12-18T08:39:30.157Z,101045.94
2022-12-18T08:42:14.817Z,101044.31
2022-12-18T08:44:42.066Z,101043.53
2022-12-18T08:47:08.696Z,101034.13
2022-12-18T08:49:36.053Z,101025.56
2022-12-18T08:52:03.703Z,101020.44
2022-12-18T08:54:30.216Z,101016.22
2022-12-18T08:56:56.510Z,101008.50
2022-12-18T08:59:24.015Z,101008.56
2022-12-18T09:01:50.458Z,101009.47
2022-12-18T09:04:17.132Z,101007.81
2022-12-18T09:06:43.526Z,101006.13
2022-12-18T09:09:10.622Z,100999.28
2022-12-18T09:11:37.844Z,100994.16
2022-12-18T09:14:04.446Z,100994.19
2022-12-18T09:16:33.000Z,101004.59
2022-12-18T09:19:00.599Z,101010.63
2022-12-18T09:21:29.993Z,101014.97
2022-12-18T09:23:57.237Z,101017.59
2022-12-18T09:26:24.861Z,101015.88
2022-12-18T09:28:51.865Z,101019.38
2022-12-18T09:31:21.452Z,101029.75
2022-12-18T09:33:47.907Z,101018.56
2022-12-18T09:36:16.840Z,101021.16
2022-12-18T09:38:43.535Z,101027.25
2022-12-18T09:41:45.142Z,101032.41
2022-12-18T09:44:15.261Z,101029.03
2022-12-18T09:46:47.014Z,101032.50
2022-12-18T09:49:17.057Z,101018.72
2022-12-18T09:51:47.848Z,101032.56
2022-12-18T09:54:21.546Z,101033.44
2022-12-18T09:56:48.790Z,101022.25
2022-12-18T09:59:21.958Z,101012.78
2022-12-18T10:01:48.332Z,100998.13
2022-12-18T10:04:14.858Z,100977.44
2022-12-18T10:07:04.314Z,100972.25
2022-12-18T10:09:47.587Z,100961.06
2022-12-18T10:12:20.495Z,100959.34
2022-12-18T10:14:55.350Z,100961.09
2022-12-18T10:17:21.610Z,100962.81
2022-12-18T10:19:55.174Z,100955.91
2022-12-18T10:22:30.441Z,100955.94
2022-12-18T10:25:14.240Z,100957.66
2022-12-18T10:27:41.165Z,100961.13
2022-12-18T10:30:15.976Z,100962.88
2022-12-18T10:32:42.857Z,100958.53
2022-12-18T10:35:19.913Z,100959.41
2022-12-18T10:38:04.985Z,100957.66
2022-12-18T10:40:32.009Z,100949.91
2022-12-18T10:43:07.190Z,100941.25
2022-12-18T10:45:33.505Z,100946.41
2022-12-18T10:47:59.905Z,100949.03
2022-12-18T10:51:09.138Z,100942.09
2022-12-18T10:53:26.943Z,100923.91
2022-12-18T10:55:56.346Z,100914.34
2022-12-18T10:58:27.610Z,100901.38
2022-12-18T11:01:08.118Z,100900.50
2022-12-18T11:03:57.578Z,100899.63
2022-12-18T11:06:27.105Z,100909.97
2022-12-18T11:09:03.660Z,100915.13
2022-12-18T11:11:33.965Z,100920.34
2022-12-18T11:14:06.188Z,100912.50
2022-12-18T11:16:57.894Z,100909.00
2022-12-18T11:19:34.291Z,100911.56
2022-12-18T11:22:04.879Z,100900.22
2022-12-18T11:24:33.683Z,100895.91
2022-12-18T11:27:03.259Z,100881.13
2022-12-18T11:29:46.216Z,100881.09
2022-12-18T11:32:16.030Z,100875.84
2022-12-18T11:34:47.827Z,100861.09
2022-12-18T11:37:20.062Z,100862.81
2022-12-18T11:39:53.648Z,100863.69
2022-12-18T11:42:28.497Z,100854.13
2022-12-18T11:45:24.066Z,100855.88
2022-12-18T11:47:56.440Z,100855.06
2022-12-18T11:50:27.529Z,100853.34
2022-12-18T11:52:58.213Z,100860.28
2022-12-18T11:55:40.693Z,100866.41
2022-12-18T11:58:22.484Z,100856.91
2022-12-18T12:01:05.361Z,100855.19
2022-12-18T12:03:49.527Z,100850.00
2022-12-18T12:06:22.316Z,100850.00
2022-12-18T12:09:09.589Z,100848.28
2022-12-18T12:11:57.502Z,100848.28
2022-12-18T12:14:53.461Z,100834.44
2022-12-18T12:17:51.441Z,100833.59
2022-12-18T12:20:26.538Z,100837.91
2022-12-18T12:23:26.079Z,100843.16
2022-12-18T12:26:03.330Z,100853.56
2022-12-18T12:28:39.032Z,100844.06
2022-12-18T12:31:33.583Z,100848.41
2022-12-18T12:34:20.374Z,100838.88
2022-12-18T12:36:58.860Z,100820.69
2022-12-18T12:39:32.811Z,100810.31
2022-12-18T12:42:18.038Z,100793.88
2022-12-18T12:44:55.770Z,100797.34
2022-12-18T12:47:28.599Z,100788.78
2022-12-18T12:49:59.051Z,100775.78
2022-12-18T12:52:40.759Z,100775.84
2022-12-18T12:55:19.755Z,100763.75
2022-12-18T12:58:18.396Z,100770.69
2022-12-18T13:00:57.506Z,100777.66
2022-12-18T13:03:44.350Z,100781.97
2022-12-18T13:06:28.152Z,100777.69
2022-12-18T13:08:54.579Z,100770.75
2022-12-18T13:11:59.515Z,100772.50
2022-12-18T13:14:33.504Z,100755.22
2022-12-18T13:17:21.464Z,100745.72
2022-12-18T13:20:09.171Z,100733.63
2022-12-18T13:22:50.028Z,100725.00
2022-12-18T13:25:38.605Z,100718.94
2022-12-18T13:28:22.088Z,100710.31
2022-12-18T13:30:58.968Z,100713.78
2022-12-18T13:33:31.216Z,100725.88
2022-12-18T13:36:09.940Z,100715.53
2022-12-18T13:38:39.329Z,100718.97
2022-12-18T13:41:29.093Z,100717.25
2022-12-18T13:44:00.165Z,100710.34
2022-12-18T13:46:42.813Z,100712.94
2022-12-18T13:49:15.085Z,100695.63
2022-12-18T13:51:48.909Z,100701.69
2022-12-18T13:54:20.877Z,100703.41
2022-12-18T13:56:49.262Z,100691.31
2022-12-18T13:59:15.881Z,100691.28
2022-12-18T14:01:45.110Z,100694.75
2022-12-18T14:04:22.375Z,100700.81
2022-12-18T14:06:52.334Z,100698.22
2022-12-18T14:09:27.290Z,100692.16
2022-12-18T14:12:15.635Z,100682.66
2022-12-18T14:14:45.530Z,100681.78
2022-12-18T14:17:13.663Z,100690.44
2022-12-18T14:19:49.666Z,100681.81
2022-12-18T14:22:19.729Z,100678.34
2022-12-18T14:24:46.879Z,100657.59
2022-12-18T14:27:25.353Z,100668.84
2022-12-18T14:29:52.444Z,100662.78
2022-12-18T14:32:20.816Z,100656.75
2022-12-18T14:34:50.559Z,100667.13
2022-12-18T14:37:22.681Z,100659.34
2022-12-18T14:40:11.089Z,100647.25
2022-12-18T14:42:38.341Z,100648.13
2022-12-18T14:45:41.601Z,100628.25
2022-12-18T14:48:31.527Z,100630.84
2022-12-18T14:51:01.844Z,100628.25
2022-12-18T14:53:40.812Z,100637.75
2022-12-18T14:56:21.806Z,100645.53
2022-12-18T14:59:22.328Z,100644.66
2022-12-18T15:01:50.735Z,100633.41
2022-12-18T15:04:36.053Z,100631.69
2022-12-18T15:07:06.426Z,100626.50
2022-12-18T15:09:33.061Z,100611.81
2022-12-18T15:12:01.306Z,100608.34
2022-12-18T15:14:30.798Z,100602.28
2022-12-18T15:16:58.739Z,100597.94
2022-12-18T15:19:36.230Z,100592.78
2022-12-18T15:22:06.321Z,100595.31
2022-12-18T15:24:33.722Z,100593.59
2022-12-18T15:27:01.261Z,100591.00
2022-12-18T15:29:30.443Z,100587.53
2022-12-18T15:32:01.324Z,100578.03
2022-12-18T15:34:27.944Z,100576.28
2022-12-18T15:36:54.426Z,100581.47
2022-12-18T15:39:20.972Z,100578.00
2022-12-18T15:42:06.608Z,100569.38
2022-12-18T15:44:35.973Z,100561.53
2022-12-18T15:47:02.435Z,100560.69
2022-12-18T15:49:28.931Z,100548.56
2022-12-18T15:51:59.148Z,100550.28
2022-12-18T15:54:44.217Z,100544.19
2022-12-18T15:57:27.377Z,100544.19
2022-12-18T15:59:56.123Z,100543.28
2022-12-18T16:02:23.940Z,100545.81
2022-12-18T16:04:53.085Z,100535.44
2022-12-18T16:07:25.476Z,100533.69
2022-12-18T16:09:53.207Z,100534.53
2022-12-18T16:12:23.493Z,100526.72
2022-12-18T16:14:50.080Z,100527.53
2022-12-18T16:17:16.868Z,100529.22
2022-12-18T16:19:43.398Z,100523.13
2022-12-18T16:22:20.354Z,100519.66
2022-12-18T16:24:46.817Z,100508.34
2022-12-18T16:27:13.546Z,100506.56
2022-12-18T16:29:40.041Z,100500.47
2022-12-18T16:32:06.497Z,100496.09
2022-12-18T16:34:36.065Z,100506.47
2022-12-18T16:37:06.335Z,100496.06
2022-12-18T16:39:35.273Z,100493.41
2022-12-18T16:42:07.862Z,100483.88
2022-12-18T16:44:34.962Z,100481.25
2022-12-18T16:47:03.138Z,100483.81
2022-12-18T16:49:30.460Z,100479.47
2022-12-18T16:51:57.215Z,100470.78
2022-12-18T16:54:23.780Z,100476.84
2022-12-18T16:56:51.824Z,100486.34
2022-12-18T16:59:18.772Z,100488.06
2022-12-18T17:01:45.706Z,100484.59
2022-12-18T17:04:12.278Z,100477.66
2022-12-18T17:06:44.038Z,100478.50
2022-12-18T17:09:16.398Z,100475.88
2022-12-18T17:11:43.879Z,100472.38
2022-12-18T17:14:15.006Z,100486.22
2022-12-18T17:16:41.525Z,100473.22
2022-12-18T17:19:10.934Z,100457.63
2022-12-18T17:21:41.986Z,100456.72
2022-12-18T17:24:08.950Z,100452.34
2022-12-18T17:26:35.423Z,100456.72
2022-12-18T17:29:02.042Z,100461.03
2022-12-18T17:31:30.090Z,100454.06
2022-12-18T17:33:57.807Z,100437.63
2022-12-18T17:36:28.528Z,100457.53
2022-12-18T17:38:58.468Z,100451.50
2022-12-18T17:41:26.178Z,100466.22
2022-12-18T17:43:53.437Z,100451.50
2022-12-18T17:46:20.794Z,100454.97
2022-12-18T17:48:47.956Z,100453.22
2022-12-18T17:51:15.809Z,100442.84
2022-12-18T17:53:43.174Z,100438.53
2022-12-18T17:56:14.777Z,100445.47
2022-12-18T17:58:42.351Z,100442.84
2022-12-18T18:01:09.544Z,100450.63
2022-12-18T18:03:39.700Z,100448.88
2022-12-18T18:06:07.006Z,100429.84
2022-12-18T18:08:35.310Z,100439.34
2022-12-18T18:11:30.578Z,100442.84
2022-12-18T18:14:00.919Z,100435.81
2022-12-18T18:16:34.090Z,100426.31
2022-12-18T18:19:02.337Z,100420.19
2022-12-18T18:21:29.064Z,100417.59
2022-12-18T18:23:59.479Z,100408.91
2022-12-18T18:26:29.207Z,100410.59
2022-12-18T18:28:57.319Z,100396.72
2022-12-18T18:31:23.905Z,100403.59
2022-12-18T18:33:50.384Z,100408.78
2022-12-18T18:36:16.888Z,100401.84
2022-12-18T18:38:48.263Z,100394.88
2022-12-18T18:41:15.976Z,100400.91
2022-12-18T18:43:43.381Z,100400.03
2022-12-18T18:46:13.009Z,100406.06
2022-12-18T18:48:40.700Z,100400.84
2022-12-18T18:51:16.539Z,100403.47
2022-12-18T18:53:49.944Z,100411.25
2022-12-18T18:56:56.190Z,100416.44
2022-12-18T18:59:06.193Z,100420.81
2022-12-18T19:01:33.132Z,100408.66
2022-12-18T19:04:02.405Z,100413.91
2022-12-18T19:06:29.088Z,100418.22
2022-12-18T19:08:58.114Z,100427.75
2022-12-18T19:11:44.581Z,100425.19
2022-12-18T19:14:13.201Z,100409.56
2022-12-18T19:16:40.378Z,100411.31
2022-12-18T19:19:07.569Z,100417.38
2022-12-18T19:21:34.990Z,100412.19
2022-12-18T19:24:24.535Z,100413.06
2022-12-18T19:26:52.050Z,100407.88
2022-12-18T19:29:19.337Z,100421.75
2022-12-18T19:31:45.811Z,100423.47
2022-12-18T19:34:12.851Z,100424.41
2022-12-18T19:36:40.682Z,100414.03
2022-12-18T19:39:11.042Z,100417.50
2022-12-18T19:41:37.438Z,100412.38
2022-12-18T19:44:07.664Z,100408.91
2022-12-18T19:46:34.715Z,100420.22
2022-12-18T19:49:02.480Z,100414.22
2022-12-18T19:51:29.844Z,100423.75
2022-12-18T19:53:59.095Z,100421.19
2022-12-18T19:56:29.744Z,100424.69
2022-12-18T19:58:56.291Z,100420.38
2022-12-18T20:01:24.187Z,100413.50
2022-12-18T20:03:52.455Z,100416.97
2022-12-18T20:06:35.053Z,100419.63
2022-12-18T20:09:05.201Z,100418.78
2022-12-18T20:11:33.100Z,100416.19
2022-12-18T20:14:01.169Z,100417.03
2022-12-18T20:16:28.045Z,100410.16
2022-12-18T20:18:54.606Z,100413.63
2022-12-18T20:21:21.234Z,100415.41
2022-12-18T20:23:47.573Z,100412.84
2022-12-18T20:26:14.003Z,100418.06
2022-12-18T20:28:40.804Z,100405.09
2022-12-18T20:31:08.338Z,100418.97
2022-12-18T20:33:37.595Z,100409.44
2022-12-18T20:36:11.085Z,100406.03
2022-12-18T20:38:39.032Z,100407.75
2022-12-18T20:41:11.728Z,100393.88
2022-12-18T20:43:39.116Z,100396.44
2022-12-18T20:46:09.015Z,100403.38
2022-12-18T20:48:36.012Z,100404.25
2022-12-18T20:51:06.061Z,100402.47
2022-12-18T20:53:33.474Z,100399.88
2022-12-18T20:55:59.941Z,100401.56
2022-12-18T20:58:26.266Z,100407.63
2022-12-18T21:01:06.954Z,100395.53
2022-12-18T21:03:36.473Z,100399.81
2022-12-18T21:06:03.411Z,100400.66
2022-12-18T21:08:30.069Z,100403.25
2022-12-18T21:10:56.650Z,100395.44
2022-12-18T21:13:23.605Z,100409.31
2022-12-18T21:15:53.301Z,100411.03
2022-12-18T21:18:20.206Z,100400.63
2022-12-18T21:20:46.506Z,100403.22
2022-12-18T21:23:16.662Z,100403.25
2022-12-18T21:25:44.280Z,100417.13
2022-12-18T21:28:12.007Z,100411.91
2022-12-18T21:30:38.663Z,100407.59
2022-12-18T21:33:05.055Z,100396.34
2022-12-18T21:35:32.033Z,100410.22
2022-12-18T21:37:58.550Z,100408.47
2022-12-18T21:40:25.135Z,100398.97
2022-12-18T21:43:10.187Z,100407.63
2022-12-18T21:45:39.598Z,100402.44
2022-12-18T21:48:05.979Z,100394.66
2022-12-18T21:50:32.311Z,100402.44
2022-12-18T21:52:58.659Z,100398.97
2022-12-18T21:55:25.008Z,100410.22
2022-12-18T21:57:53.668Z,100405.94
2022-12-18T22:00:20.103Z,100411.13
2022-12-18T22:02:47.408Z,100401.63
2022-12-18T22:05:13.959Z,100403.34
2022-12-18T22:07:40.357Z,100395.56
2022-12-18T22:10:07.319Z,100403.34
2022-12-18T22:12:43.732Z,100396.44
2022-12-18T22:15:16.288Z,100408.56
2022-12-18T22:17:49.686Z,100401.63
2022-12-18T22:20:16.166Z,100394.69
2022-12-18T22:22:42.501Z,100388.66
2022-12-18T22:25:10.570Z,100387.78
2022-12-18T22:27:37.624Z,100390.41
2022-12-18T22:30:04.737Z,100382.59
2022-12-18T22:32:35.713Z,100388.69
2022-12-18T22:35:08.376Z,100379.16
2022-12-18T22:37:37.079Z,100369.63
2022-12-18T22:40:05.090Z,100374.81
2022-12-18T22:42:32.498Z,100369.59
2022-12-18T22:45:00.084Z,100363.53
2022-12-18T22:47:29.774Z,100372.19
2022-12-18T22:49:57.318Z,100369.56
2022-12-18T22:52:24.785Z,100375.66
2022-12-18T22:54:51.314Z,100367.84
2022-12-18T22:57:19.863Z,100366.97
2022-12-18T22:59:46.178Z,100362.63
2022-12-18T23:02:12.596Z,100369.56
2022-12-18T23:04:39.667Z,100370.41
2022-12-18T23:07:06.056Z,100360.88
2022-12-18T23:09:33.089Z,100356.56
2022-12-18T23:12:00.155Z,100341.81
2022-12-18T23:14:27.487Z,100336.59
2022-12-18T23:16:53.801Z,100340.06
2022-12-18T23:19:20.976Z,100330.50
2022-12-18T23:21:49.812Z,100335.66
2022-12-18T23:24:16.127Z,100335.63
2022-12-18T23:26:42.466Z,100328.66
2022-12-18T23:29:08.760Z,100315.63
2022-12-18T23:31:37.033Z,100317.34
2022-12-18T23:34:04.713Z,100312.09
2022-12-18T23:36:36.909Z,100300.81
2022-12-18T23:39:22.334Z,100301.63
2022-12-18T23:41:55.776Z,100285.13
2022-12-18T23:44:22.381Z,100287.69
2022-12-18T23:46:48.800Z,100287.69
2022-12-18T23:49:17.242Z,100279.88
2022-12-18T23:51:43.562Z,100276.41
2022-12-18T23:54:10.303Z,100271.16
2022-12-18T23:56:36.626Z,100262.47
2022-12-18T23:59:03.149Z,100260.75
